Time;durP1;ratioP1;P1;durP2;ratioP2;P2;SDS_P1;SDS_P2;PMS_P1;PMS_P2;Temp;Humidity;BMP_temperature;BMP_pressure;BME280_temperature;BME280_humidity;BME280_pressure;Samples;Min_cycle;Max_cycle;Signal;HPM_P1;HPM_P2
2022/01/27 00:00:43;;;;;;;27.83;14.73;;;;;;;;;;5045287;28;20036;-78
2022/01/27 00:03:28;;;;;;;31.15;16.00;;;;;;;;;;5044690;28;20026;-78
2022/01/27 00:05:59;;;;;;;30.63;16.10;;;;;;;;;;5045181;28;20017;-79
2022/01/27 00:08:30;;;;;;;30.20;15.73;;;;;;;;;;5026384;28;20032;-78
2022/01/27 00:11:03;;;;;;;33.28;16.58;;;;;;;;;;5029816;28;20022;-78
2022/01/27 00:13:42;;;;;;;;;;;;;;;;;;5007358;28;20018;-78
2022/01/27 00:18:38;;;;;;;28.75;15.13;;;;;;;;;;5024966;28;20081;-81
2022/01/27 00:21:04;;;;;;;27.80;14.75;;;;;;;;;;5029631;28;20036;-78
2022/01/27 00:23:31;;;;;;;27.33;14.40;;;;;;;;;;5022616;28;20022;-79
2022/01/27 00:25:57;;;;;;;29.45;14.40;;;;;;;;;;5006780;28;20382;-79
2022/01/27 00:28:25;;;;;;;28.48;14.45;;;;;;;;;;5018589;28;20026;-79
2022/01/27 00:30:51;;;;;;;28.77;15.93;;;;;;;;;;5025945;28;20270;-79
2022/01/27 00:33:17;;;;;;;32.35;16.40;;;;;;;;;;5026547;28;20036;-79
2022/01/27 00:35:43;;;;;;;27.85;15.77;;;;;;;;;;5043941;28;20033;-79
2022/01/27 00:38:09;;;;;;;31.95;15.82;;;;;;;;;;5026690;28;20116;-79
2022/01/27 00:40:36;;;;;;;32.00;16.08;;;;;;;;;;5043937;28;20025;-80
2022/01/27 00:43:02;;;;;;;35.70;15.68;;;;;;;;;;5025274;28;20026;-80
2022/01/27 00:45:30;;;;;;;35.92;17.13;;;;;;;;;;5025311;28;20558;-80
2022/01/27 00:48:00;;;;;;;31.77;15.65;;;;;;;;;;5043284;28;20024;-78
2022/01/27 00:50:27;;;;;;;29.10;15.02;;;;;;;;;;5043001;28;20033;-79
2022/01/27 00:52:55;;;;;;;28.58;15.70;;;;;;;;;;5043201;28;20211;-79
2022/01/27 00:55:24;;;;;;;28.02;14.13;;;;;;;;;;5042735;28;20523;-79
2022/01/27 01:00:21;;;;;;;26.42;14.60;;;;;;;;;;5043178;28;20113;-80
2022/01/27 01:03:03;;;;;;;27.15;13.60;;;;;;;;;;5043594;28;20490;-81
2022/01/27 01:05:50;;;;;;;25.97;14.20;;;;;;;;;;5044894;28;20356;-78
2022/01/27 01:09:08;;;;;;;26.23;13.57;;;;;;;;;;5045897;28;20029;-79
2022/01/27 01:30:20;;;;;;;29.38;15.40;;;;;;;;;;5043086;28;20032;-79
2022/01/27 01:35:13;;;;;;;27.30;14.90;;;;;;;;;;5022791;28;20068;-79
2022/01/27 01:37:41;;;;;;;29.45;14.48;;;;;;;;;;5005245;28;20030;-79
2022/01/27 01:40:09;;;;;;;26.13;14.38;;;;;;;;;;5023463;28;20022;-79
2022/01/27 01:42:35;;;;;;;29.63;14.82;;;;;;;;;;5025301;28;20583;-79
2022/01/27 01:45:11;;;;;;;29.15;15.25;;;;;;;;;;5024854;28;20018;-79
2022/01/27 01:47:38;;;;;;;30.63;16.48;;;;;;;;;;5043489;28;20025;-80
2022/01/27 01:50:05;;;;;;;31.10;16.58;;;;;;;;;;5042064;28;20491;-80
2022/01/27 01:52:31;;;;;;;29.15;16.58;;;;;;;;;;5007964;28;20037;-79
2022/01/27 01:55:01;;;;;;;27.17;13.82;;;;;;;;;;5021207;28;20053;-78
2022/01/27 01:57:27;;;;;;;29.85;16.92;;;;;;;;;;5021861;28;20034;-80
2022/01/27 01:59:54;;;;;;;26.45;14.43;;;;;;;;;;5038399;28;20030;-79
2022/01/27 02:02:20;;;;;;;33.67;15.95;;;;;;;;;;5038284;28;20095;-79
2022/01/27 02:04:46;;;;;;;29.25;15.65;;;;;;;;;;5022865;28;20018;-79
2022/01/27 02:07:48;;;;;;;28.00;14.82;;;;;;;;;;5023067;28;20026;-79
2022/01/27 02:18:29;;;;;;;31.17;15.25;;;;;;;;;;5022467;28;20566;-79
2022/01/27 02:21:01;;;;;;;30.83;16.77;;;;;;;;;;5022955;28;20050;-79
2022/01/27 02:23:27;;;;;;;32.22;16.88;;;;;;;;;;5021297;28;20097;-79
2022/01/27 02:25:53;;;;;;;30.95;16.75;;;;;;;;;;5023012;28;20060;-79
2022/01/27 02:28:20;;;;;;;32.40;16.50;;;;;;;;;;5021351;28;20042;-78
2022/01/27 02:30:46;;;;;;;28.98;14.75;;;;;;;;;;5022486;28;20030;-79
2022/01/27 02:33:12;;;;;;;29.58;15.07;;;;;;;;;;5021362;28;20026;-79
2022/01/27 02:35:39;;;;;;;26.77;14.30;;;;;;;;;;5022190;28;20049;-79
2022/01/27 02:38:05;;;;;;;28.77;15.10;;;;;;;;;;5020417;28;20041;-78
2022/01/27 02:40:39;;;;;;;32.03;15.23;;;;;;;;;;5020177;28;20026;-78
2022/01/27 02:43:07;;;;;;;31.20;14.52;;;;;;;;;;5021915;28;20033;-79
2022/01/27 02:45:33;;;;;;;28.20;14.20;;;;;;;;;;5026535;28;20026;-79
2022/01/27 02:48:00;;;;;;;28.63;14.30;;;;;;;;;;5026119;28;20018;-79
2022/01/27 02:50:27;;;;;;;27.90;15.55;;;;;;;;;;5024902;28;20022;-79
2022/01/27 02:52:53;;;;;;;27.48;13.60;;;;;;;;;;5025336;28;20033;-78
2022/01/27 02:55:19;;;;;;;30.10;13.60;;;;;;;;;;5024032;28;20085;-78
2022/01/27 02:57:46;;;;;;;27.65;14.05;;;;;;;;;;5040230;28;20037;-79
2022/01/27 03:00:12;;;;;;;25.27;13.68;;;;;;;;;;5024470;28;20026;-79
2022/01/27 03:02:38;;;;;;;27.92;13.93;;;;;;;;;;5025348;28;20037;-79
2022/01/27 03:05:04;;;;;;;30.90;15.23;;;;;;;;;;5025457;28;20045;-78
2022/01/27 03:07:31;;;;;;;27.60;14.68;;;;;;;;;;5025157;28;20022;-78
2022/01/27 03:09:57;;;;;;;26.00;12.95;;;;;;;;;;5039764;28;20105;-78
2022/01/27 03:12:26;;;;;;;28.52;13.30;;;;;;;;;;5036484;28;20381;-78
2022/01/27 03:14:52;;;;;;;29.30;14.82;;;;;;;;;;5036884;28;20046;-78
2022/01/27 03:17:18;;;;;;;27.95;14.05;;;;;;;;;;5022656;28;20034;-78
2022/01/27 03:19:44;;;;;;;27.90;14.20;;;;;;;;;;5023715;28;20053;-78
2022/01/27 03:22:10;;;;;;;26.42;12.90;;;;;;;;;;5023352;28;20028;-79
2022/01/27 03:24:37;;;;;;;30.65;13.57;;;;;;;;;;5023290;28;20093;-78
2022/01/27 03:27:14;;;;;;;27.00;13.20;;;;;;;;;;5023901;28;20599;-79
2022/01/27 03:29:40;;;;;;;26.50;14.25;;;;;;;;;;5024761;28;20037;-80
2022/01/27 03:32:07;;;;;;;28.48;14.15;;;;;;;;;;5024803;28;20062;-79
2022/01/27 03:34:33;;;;;;;25.83;13.55;;;;;;;;;;5025277;28;20038;-79
2022/01/27 03:36:59;;;;;;;26.70;13.82;;;;;;;;;;5025451;28;20099;-79
2022/01/27 03:39:27;;;;;;;27.23;14.40;;;;;;;;;;5023444;28;20022;-80
2022/01/27 03:41:55;;;;;;;28.15;14.18;;;;;;;;;;5023450;28;20026;-79
2022/01/27 03:44:22;;;;;;;29.80;14.27;;;;;;;;;;5025044;28;20018;-79
2022/01/27 03:46:49;;;;;;;28.92;14.18;;;;;;;;;;5023098;28;20121;-80
2022/01/27 03:49:15;;;;;;;29.42;15.18;;;;;;;;;;5024005;28;20052;-80
2022/01/27 03:51:41;;;;;;;34.08;15.52;;;;;;;;;;5020324;28;20093;-79
2022/01/27 03:54:08;;;;;;;32.63;15.13;;;;;;;;;;5013919;28;20050;-79
2022/01/27 03:56:34;;;;;;;32.72;14.95;;;;;;;;;;5021404;28;20377;-79
2022/01/27 03:59:00;;;;;;;30.85;14.90;;;;;;;;;;5024426;28;20053;-80
2022/01/27 04:01:26;;;;;;;33.95;15.55;;;;;;;;;;5035667;28;20033;-80
2022/01/27 04:03:56;;;;;;;32.08;15.15;;;;;;;;;;5043889;28;20048;-79
2022/01/27 04:06:31;;;;;;;32.70;14.93;;;;;;;;;;5044000;28;20045;-78
2022/01/27 04:08:58;;;;;;;34.78;15.27;;;;;;;;;;5026577;28;20032;-80
2022/01/27 04:11:24;;;;;;;32.53;16.48;;;;;;;;;;5026408;28;20434;-79
2022/01/27 04:13:50;;;;;;;30.58;15.80;;;;;;;;;;5044672;28;20026;-78
2022/01/27 04:16:16;;;;;;;38.45;19.38;;;;;;;;;;5020167;28;20040;-79
2022/01/27 04:18:43;;;;;;;27.33;14.52;;;;;;;;;;5042875;28;20025;-80
2022/01/27 04:21:09;;;;;;;31.80;15.20;;;;;;;;;;5027367;28;20097;-80
2022/01/27 04:23:38;;;;;;;31.75;17.00;;;;;;;;;;5023581;28;20458;-79
2022/01/27 04:26:05;;;;;;;29.27;17.13;;;;;;;;;;5027342;28;20021;-80
2022/01/27 04:28:34;;;;;;;33.83;16.52;;;;;;;;;;5044443;28;20092;-78
2022/01/27 04:31:03;;;;;;;30.08;15.75;;;;;;;;;;5027467;28;20456;-80
2022/01/27 04:33:32;;;;;;;32.55;16.10;;;;;;;;;;5025347;28;20030;-79
2022/01/27 04:36:05;;;;;;;33.33;17.20;;;;;;;;;;5043441;28;20029;-78
2022/01/27 04:38:50;;;;;;;34.40;17.90;;;;;;;;;;5026395;28;20090;-79
2022/01/27 04:41:25;;;;;;;33.22;15.48;;;;;;;;;;5035685;28;20041;-78
2022/01/27 04:43:59;;;;;;;31.60;16.45;;;;;;;;;;5006545;28;20034;-80
2022/01/27 04:46:40;;;;;;;33.90;16.45;;;;;;;;;;5024051;28;20018;-78
2022/01/27 04:49:11;;;;;;;36.30;17.35;;;;;;;;;;5042380;28;20105;-80
2022/01/27 04:51:37;;;;;;;32.10;17.00;;;;;;;;;;5043684;28;20341;-81
2022/01/27 04:54:19;;;;;;;37.85;17.90;;;;;;;;;;5025226;28;20053;-81
2022/01/27 04:56:45;;;;;;;34.85;17.15;;;;;;;;;;5043550;28;20025;-79
2022/01/27 04:59:18;;;;;;;33.60;15.25;;;;;;;;;;5022941;28;20429;-80
2022/01/27 05:02:05;;;;;;;34.42;16.42;;;;;;;;;;5022275;28;20036;-79
2022/01/27 05:04:35;;;;;;;35.75;18.52;;;;;;;;;;5039063;28;20021;-80
2022/01/27 05:07:01;;;;;;;32.78;15.63;;;;;;;;;;5038233;28;20560;-78
2022/01/27 05:09:27;;;;;;;30.20;16.40;;;;;;;;;;5023462;28;20080;-79
2022/01/27 05:12:09;;;;;;;31.88;15.57;;;;;;;;;;5023627;28;20284;-79
2022/01/27 05:14:35;;;;;;;31.92;17.10;;;;;;;;;;5043194;28;20028;-79
2022/01/27 05:17:01;;;;;;;33.13;16.42;;;;;;;;;;5025094;28;20440;-79
2022/01/27 05:19:27;;;;;;;35.65;16.65;;;;;;;;;;5036778;28;20017;-79
2022/01/27 05:21:53;;;;;;;35.83;17.17;;;;;;;;;;5041937;28;20029;-79
2022/01/27 05:24:19;;;;;;;30.05;15.63;;;;;;;;;;5025696;28;20029;-80
2022/01/27 05:26:46;;;;;;;33.50;15.57;;;;;;;;;;5044107;28;20017;-80
2022/01/27 05:29:12;;;;;;;34.20;16.25;;;;;;;;;;5042409;28;20072;-79
2022/01/27 05:31:39;;;;;;;38.80;17.23;;;;;;;;;;5024442;28;20021;-82
2022/01/27 05:34:05;;;;;;;27.83;14.60;;;;;;;;;;5024435;28;20037;-81
2022/01/27 05:36:32;;;;;;;27.67;15.48;;;;;;;;;;5024211;28;20102;-80
2022/01/27 05:38:59;;;;;;;30.25;14.98;;;;;;;;;;5025464;28;20060;-79
2022/01/27 05:41:25;;;;;;;29.15;14.38;;;;;;;;;;5025323;28;20029;-79
2022/01/27 05:43:53;;;;;;;29.60;15.43;;;;;;;;;;5023429;28;20032;-79
2022/01/27 05:46:19;;;;;;;29.45;16.35;;;;;;;;;;5042045;28;20454;-78
2022/01/27 05:48:45;;;;;;;35.08;15.32;;;;;;;;;;5042486;28;20014;-79
2022/01/27 05:51:13;;;;;;;26.48;15.15;;;;;;;;;;5023767;28;20102;-78
2022/01/27 05:53:39;;;;;;;29.95;16.35;;;;;;;;;;5036289;28;20673;-79
2022/01/27 05:56:06;;;;;;;31.10;16.48;;;;;;;;;;5021267;28;20032;-79
2022/01/27 05:58:32;;;;;;;28.58;15.48;;;;;;;;;;5020698;28;20034;-80
2022/01/27 06:00:58;;;;;;;27.10;14.93;;;;;;;;;;5023019;28;20064;-78
2022/01/27 06:03:26;;;;;;;29.13;14.30;;;;;;;;;;5021070;28;20030;-79
2022/01/27 06:05:54;;;;;;;28.17;15.48;;;;;;;;;;5019963;28;20022;-79
2022/01/27 06:08:20;;;;;;;28.23;14.35;;;;;;;;;;5020158;28;20041;-79
2022/01/27 06:10:46;;;;;;;25.85;13.48;;;;;;;;;;5020779;28;20060;-79
2022/01/27 06:13:12;;;;;;;28.33;15.25;;;;;;;;;;5036242;28;20149;-79
2022/01/27 06:15:39;;;;;;;32.83;15.30;;;;;;;;;;5015835;28;20018;-81
2022/01/27 06:18:05;;;;;;;31.70;16.45;;;;;;;;;;5022515;28;20036;-80
2022/01/27 06:20:32;;;;;;;28.13;15.68;;;;;;;;;;5024716;28;20088;-79
2022/01/27 06:22:59;;;;;;;24.20;14.88;;;;;;;;;;5024462;28;20018;-79
2022/01/27 06:25:26;;;;;;;32.45;16.13;;;;;;;;;;5039363;28;20018;-80
2022/01/27 06:27:53;;;;;;;27.63;14.30;;;;;;;;;;5022659;28;20029;-79
2022/01/27 06:30:19;;;;;;;27.63;14.35;;;;;;;;;;5024127;28;20096;-80
2022/01/27 06:32:45;;;;;;;29.52;15.93;;;;;;;;;;5023655;28;20097;-80
2022/01/27 06:35:11;;;;;;;33.17;16.20;;;;;;;;;;5024308;28;20061;-78
2022/01/27 06:37:39;;;;;;;27.52;15.40;;;;;;;;;;5010164;28;20080;-78
2022/01/27 06:40:05;;;;;;;28.73;15.07;;;;;;;;;;5023934;28;20113;-79
2022/01/27 06:42:32;;;;;;;31.05;15.98;;;;;;;;;;5039012;28;20053;-79
2022/01/27 06:44:59;;;;;;;27.33;15.35;;;;;;;;;;5015133;28;20040;-79
2022/01/27 06:47:25;;;;;;;28.83;15.10;;;;;;;;;;5024380;28;20072;-79
2022/01/27 06:49:52;;;;;;;29.08;14.32;;;;;;;;;;5020972;28;20041;-78
2022/01/27 06:52:20;;;;;;;27.40;13.73;;;;;;;;;;5038917;28;20022;-77
2022/01/27 06:54:49;;;;;;;28.20;13.52;;;;;;;;;;5038138;28;20042;-78
2022/01/27 06:57:15;;;;;;;28.75;15.82;;;;;;;;;;5038375;28;20032;-80
2022/01/27 06:59:41;;;;;;;31.83;15.85;;;;;;;;;;5023485;28;20030;-81
2022/01/27 07:02:08;;;;;;;30.17;15.60;;;;;;;;;;5038527;28;20037;-80
2022/01/27 07:04:34;;;;;;;25.88;12.98;;;;;;;;;;5023951;28;20029;-81
2022/01/27 07:07:00;;;;;;;28.73;14.30;;;;;;;;;;5026075;28;20029;-80
2022/01/27 07:09:26;;;;;;;25.73;13.50;;;;;;;;;;5008205;28;20026;-81
2022/01/27 07:11:52;;;;;;;29.38;15.23;;;;;;;;;;5017023;28;20018;-80
2022/01/27 07:14:19;;;;;;;32.03;16.10;;;;;;;;;;5004490;28;20026;-80
2022/01/27 07:16:45;;;;;;;29.65;15.13;;;;;;;;;;5013685;28;20064;-81
2022/01/27 07:19:11;;;;;;;28.58;14.32;;;;;;;;;;5022980;28;20052;-79
2022/01/27 07:21:37;;;;;;;28.25;14.43;;;;;;;;;;5022430;28;20030;-81
2022/01/27 07:24:03;;;;;;;36.95;16.20;;;;;;;;;;5022933;28;20029;-79
2022/01/27 07:26:29;;;;;;;32.22;16.20;;;;;;;;;;5025002;28;20069;-78
2022/01/27 07:28:56;;;;;;;32.80;15.65;;;;;;;;;;5022116;28;20022;-78
2022/01/27 07:31:22;;;;;;;32.28;16.63;;;;;;;;;;5018495;28;20026;-81
2022/01/27 07:33:48;;;;;;;28.20;14.38;;;;;;;;;;5022010;28;20480;-80
2022/01/27 07:36:16;;;;;;;30.60;15.60;;;;;;;;;;5013959;28;20049;-80
2022/01/27 07:38:43;;;;;;;30.27;15.57;;;;;;;;;;5015705;28;20030;-79
2022/01/27 07:41:09;;;;;;;28.05;15.00;;;;;;;;;;5025140;28;20022;-80
2022/01/27 07:43:35;;;;;;;33.13;16.40;;;;;;;;;;5023188;28;20030;-78
2022/01/27 07:46:01;;;;;;;35.45;16.83;;;;;;;;;;5025767;28;20026;-80
2022/01/27 07:48:28;;;;;;;41.30;19.15;;;;;;;;;;5040777;28;20046;-80
2022/01/27 07:50:54;;;;;;;31.35;15.85;;;;;;;;;;5037547;28;20037;-80
2022/01/27 07:53:21;;;;;;;28.15;15.82;;;;;;;;;;5008251;28;20062;-81
2022/01/27 07:55:48;;;;;;;30.58;16.35;;;;;;;;;;5038805;28;20018;-80
2022/01/27 07:58:14;;;;;;;30.38;16.50;;;;;;;;;;5043781;28;20034;-79
2022/01/27 08:00:40;;;;;;;30.55;16.05;;;;;;;;;;5044370;28;20599;-79
2022/01/27 08:03:06;;;;;;;35.03;16.40;;;;;;;;;;5030350;28;20121;-80
2022/01/27 08:05:32;;;;;;;36.80;16.98;;;;;;;;;;5026262;28;20021;-79
2022/01/27 08:07:59;;;;;;;34.15;17.35;;;;;;;;;;5044520;28;20478;-81
2022/01/27 08:10:28;;;;;;;30.95;15.50;;;;;;;;;;5027084;28;20089;-80
2022/01/27 08:12:54;;;;;;;31.98;16.23;;;;;;;;;;5026591;28;20576;-80
2022/01/27 08:15:22;;;;;;;29.23;16.25;;;;;;;;;;5035682;28;20034;-80
2022/01/27 08:17:50;;;;;;;34.50;16.42;;;;;;;;;;5026682;28;20041;-80
2022/01/27 08:20:16;;;;;;;30.52;16.35;;;;;;;;;;5044224;28;20022;-77
2022/01/27 08:22:44;;;;;;;30.67;15.38;;;;;;;;;;5042342;28;20044;-80
2022/01/27 08:25:10;;;;;;;26.15;15.60;;;;;;;;;;5014115;28;20026;-78
2022/01/27 08:27:38;;;;;;;29.20;16.42;;;;;;;;;;5023098;28;20037;-79
2022/01/27 08:30:05;;;;;;;29.02;15.50;;;;;;;;;;5032469;28;20084;-79
2022/01/27 08:32:47;;;;;;;31.98;16.33;;;;;;;;;;5043991;28;20056;-79
2022/01/27 08:35:19;;;;;;;28.90;15.70;;;;;;;;;;5029400;28;20025;-78
2022/01/27 08:37:46;;;;;;;30.05;15.13;;;;;;;;;;5022695;28;20098;-79
2022/01/27 08:40:14;;;;;;;29.80;16.65;;;;;;;;;;5025127;28;20021;-80
2022/01/27 08:42:43;;;;;;;31.45;17.42;;;;;;;;;;5042245;28;20025;-80
2022/01/27 08:45:13;;;;;;;29.80;15.40;;;;;;;;;;5043202;28;20026;-79
2022/01/27 08:47:39;;;;;;;33.63;16.35;;;;;;;;;;5025280;28;20021;-79
2022/01/27 08:50:07;;;;;;;29.05;16.33;;;;;;;;;;5043852;28;20025;-77
2022/01/27 08:52:33;;;;;;;28.30;16.02;;;;;;;;;;5024678;28;20026;-82
2022/01/27 08:55:00;;;;;;;33.35;17.60;;;;;;;;;;5025439;28;20049;-80
2022/01/27 08:57:26;;;;;;;28.98;16.73;;;;;;;;;;5027086;28;20033;-79
2022/01/27 08:59:53;;;;;;;29.10;16.95;;;;;;;;;;5028091;28;20503;-79
2022/01/27 09:02:35;;;;;;;32.58;17.67;;;;;;;;;;5087164;28;20130;-79
2022/01/27 09:05:01;;;;;;;29.13;15.90;;;;;;;;;;5058531;28;20033;-78
2022/01/27 09:07:30;;;;;;;27.02;15.48;;;;;;;;;;5076750;28;20493;-81
2022/01/27 09:09:57;;;;;;;34.95;16.25;;;;;;;;;;5079247;28;20025;-80
2022/01/27 09:12:29;;;;;;;28.95;15.82;;;;;;;;;;5054243;28;20021;-79
2022/01/27 09:14:56;;;;;;;30.92;16.65;;;;;;;;;;5043767;28;20033;-81
2022/01/27 09:17:26;;;;;;;37.88;17.10;;;;;;;;;;5079680;28;20028;-82
2022/01/27 09:19:53;;;;;;;30.08;14.82;;;;;;;;;;5061682;28;20020;-79
2022/01/27 09:22:22;;;;;;;26.13;14.07;;;;;;;;;;5053950;28;20033;-79
2022/01/27 09:25:42;;;;;;;26.83;15.20;;;;;;;;;;5079004;28;20083;-78
2022/01/27 09:27:35;;;;;;;38.55;17.70;;;;;;;;;;5061774;28;20029;-79
2022/01/27 09:30:01;;;;;;;29.10;16.13;;;;;;;;;;5067574;28;20017;-81
2022/01/27 09:32:27;;;;;;;31.90;14.43;;;;;;;;;;5062415;28;20068;-80
2022/01/27 09:34:53;;;;;;;25.27;14.57;;;;;;;;;;5038450;28;20039;-82
2022/01/27 09:37:20;;;;;;;36.85;16.02;;;;;;;;;;5055019;28;20023;-80
2022/01/27 09:39:46;;;;;;;30.63;14.32;;;;;;;;;;5048655;28;20041;-79
2022/01/27 09:42:12;;;;;;;25.60;12.93;;;;;;;;;;5056573;28;20030;-79
2022/01/27 09:44:41;;;;;;;26.73;13.93;;;;;;;;;;5056193;28;20081;-79
2022/01/27 09:47:11;;;;;;;33.17;14.70;;;;;;;;;;5057418;28;20017;-79
2022/01/27 09:49:43;;;;;;;26.15;13.77;;;;;;;;;;5054215;28;20013;-81
2022/01/27 09:52:15;;;;;;;26.38;14.80;;;;;;;;;;5067824;28;20094;-79
2022/01/27 09:54:45;;;;;;;25.52;13.48;;;;;;;;;;5079848;28;20024;-80
2022/01/27 09:57:11;;;;;;;42.05;16.92;;;;;;;;;;5078908;28;20075;-81
2022/01/27 09:59:37;;;;;;;28.48;15.88;;;;;;;;;;5060942;28;20036;-82
2022/01/27 10:02:05;;;;;;;22.13;13.43;;;;;;;;;;5072687;28;20554;-81
2022/01/27 10:05:02;;;;;;;25.10;12.73;;;;;;;;;;5081450;28;20051;-81
2022/01/27 10:07:33;;;;;;;24.17;13.50;;;;;;;;;;5047415;28;20510;-81
2022/01/27 10:10:05;;;;;;;21.38;12.48;;;;;;;;;;5079538;28;20029;-83
2022/01/27 10:12:39;;;;;;;30.17;14.23;;;;;;;;;;5057579;28;20033;-81
2022/01/27 10:15:11;;;;;;;27.83;14.45;;;;;;;;;;5057267;28;20005;-82
2022/01/27 10:17:39;;;;;;;24.73;13.77;;;;;;;;;;5047794;28;20028;-81
2022/01/27 10:20:16;;;;;;;26.27;13.15;;;;;;;;;;5060920;28;20020;-80
2022/01/27 10:23:02;;;;;;;25.77;13.13;;;;;;;;;;5063942;28;20025;-80
2022/01/27 10:25:46;;;;;;;23.55;13.00;;;;;;;;;;5066774;28;20025;-81
2022/01/27 10:29:01;;;;;;;20.65;12.10;;;;;;;;;;5051799;28;20108;-81
2022/01/27 10:31:19;;;;;;;24.00;12.95;;;;;;;;;;5059234;28;20030;-83
2022/01/27 10:33:53;;;;;;;22.75;13.60;;;;;;;;;;5060972;28;20017;-81
2022/01/27 10:36:19;;;;;;;21.02;12.52;;;;;;;;;;5047893;28;20563;-81
2022/01/27 10:38:45;;;;;;;21.33;12.38;;;;;;;;;;5066766;28;20487;-82
2022/01/27 10:41:12;;;;;;;28.85;14.35;;;;;;;;;;5068332;28;20084;-81
2022/01/27 10:43:40;;;;;;;20.42;13.30;;;;;;;;;;5064289;28;20029;-81
2022/01/27 10:48:50;;;;;;;21.88;12.15;;;;;;;;;;5065110;28;20044;-80
2022/01/27 10:51:23;;;;;;;18.48;11.15;;;;;;;;;;5052071;28;20021;-80
2022/01/27 10:53:59;;;;;;;20.38;11.75;;;;;;;;;;5040323;28;20029;-81
2022/01/27 10:56:27;;;;;;;18.77;10.85;;;;;;;;;;5056969;28;20308;-81
2022/01/27 10:58:54;;;;;;;21.27;11.45;;;;;;;;;;5045291;28;20105;-79
2022/01/27 11:01:21;;;;;;;17.08;10.88;;;;;;;;;;5019742;28;20038;-80
2022/01/27 11:03:52;;;;;;;16.60;10.02;;;;;;;;;;5044023;28;20024;-79
2022/01/27 11:06:19;;;;;;;17.58;10.30;;;;;;;;;;5041116;28;20190;-81
2022/01/27 11:08:45;;;;;;;18.23;10.15;;;;;;;;;;5019484;28;20022;-80
2022/01/27 11:11:13;;;;;;;18.77;10.70;;;;;;;;;;5031662;28;20025;-80
2022/01/27 11:13:39;;;;;;;18.30;11.57;;;;;;;;;;5043138;28;20115;-80
2022/01/27 11:16:11;;;;;;;17.88;10.48;;;;;;;;;;5023688;28;20036;-79
2022/01/27 11:18:37;;;;;;;22.07;11.83;;;;;;;;;;5023478;28;20026;-81
2022/01/27 11:21:10;;;;;;;18.20;10.50;;;;;;;;;;5007849;28;20288;-80
2022/01/27 11:26:09;;;;;;;19.63;11.32;;;;;;;;;;5044942;28;20052;-80
2022/01/27 11:28:35;;;;;;;18.88;11.38;;;;;;;;;;5024880;28;20081;-79
2022/01/27 11:31:19;;;;;;;19.45;11.07;;;;;;;;;;5043377;28;20483;-81
2022/01/27 11:33:58;;;;;;;22.92;10.98;;;;;;;;;;5029351;28;20029;-79
2022/01/27 11:36:29;;;;;;;16.85;11.30;;;;;;;;;;5030379;28;20037;-80
2022/01/27 11:38:56;;;;;;;18.10;10.18;;;;;;;;;;5023278;28;20030;-79
2022/01/27 11:41:35;;;;;;;27.98;13.02;;;;;;;;;;5041777;28;20059;-79
2022/01/27 11:44:20;;;;;;;17.70;11.05;;;;;;;;;;5041107;28;20045;-82
2022/01/27 11:47:05;;;;;;;20.90;12.82;;;;;;;;;;5023082;28;20083;-80
2022/01/27 11:49:58;;;;;;;16.75;11.27;;;;;;;;;;5037288;28;20025;-80
2022/01/27 11:52:27;;;;;;;17.77;10.25;;;;;;;;;;5007237;28;20057;-78
2022/01/27 11:54:55;;;;;;;16.85;9.95;;;;;;;;;;5021668;28;20117;-79
2022/01/27 11:57:41;;;;;;;22.88;11.45;;;;;;;;;;5011863;28;20022;-80
2022/01/27 12:00:18;;;;;;;21.70;12.20;;;;;;;;;;5038954;28;20021;-79
2022/01/27 12:03:02;;;;;;;21.42;11.90;;;;;;;;;;5008324;28;20065;-79
2022/01/27 12:05:33;;;;;;;17.02;10.50;;;;;;;;;;5003130;28;20030;-78
2022/01/27 12:08:20;;;;;;;17.98;10.55;;;;;;;;;;5020305;28;20026;-80
2022/01/27 12:11:00;;;;;;;19.35;11.52;;;;;;;;;;5015972;28;20033;-79
2022/01/27 12:18:59;;;;;;;15.88;10.23;;;;;;;;;;5038481;28;20622;-79
2022/01/27 12:21:39;;;;;;;18.75;10.52;;;;;;;;;;5021360;28;20025;-80
2022/01/27 12:24:29;;;;;;;18.25;10.55;;;;;;;;;;5039276;28;20124;-80
2022/01/27 12:26:55;;;;;;;19.08;10.13;;;;;;;;;;4994757;28;20053;-78
2022/01/27 12:29:26;;;;;;;19.17;10.98;;;;;;;;;;5037787;28;20036;-80
2022/01/27 12:31:53;;;;;;;20.50;11.68;;;;;;;;;;5036270;28;20057;-80
2022/01/27 12:34:20;;;;;;;20.48;12.73;;;;;;;;;;5039759;28;20521;-78
2022/01/27 12:36:58;;;;;;;19.50;10.25;;;;;;;;;;5028063;28;20056;-79
2022/01/27 12:39:25;;;;;;;16.17;10.10;;;;;;;;;;5038239;28;20132;-78
2022/01/27 12:41:53;;;;;;;15.88;9.85;;;;;;;;;;5022574;28;20124;-80
2022/01/27 12:44:19;;;;;;;18.98;11.00;;;;;;;;;;5019296;28;20026;-79
2022/01/27 12:47:05;;;;;;;16.30;9.50;;;;;;;;;;5037094;28;20022;-79
2022/01/27 12:49:41;;;;;;;16.42;9.65;;;;;;;;;;5037658;28;20049;-80
2022/01/27 12:52:09;;;;;;;16.38;10.35;;;;;;;;;;5038377;28;20444;-80
2022/01/27 12:54:36;;;;;;;16.38;9.57;;;;;;;;;;5037542;28;20044;-80
2022/01/27 12:57:03;;;;;;;14.65;9.00;;;;;;;;;;5021299;28;20044;-79
2022/01/27 12:59:30;;;;;;;14.35;8.10;;;;;;;;;;5011266;28;20061;-78
2022/01/27 13:01:57;;;;;;;15.38;9.85;;;;;;;;;;5048030;28;20044;-80
2022/01/27 13:04:27;;;;;;;16.70;10.90;;;;;;;;;;5058991;28;20025;-78
2022/01/27 13:06:54;;;;;;;17.13;8.73;;;;;;;;;;5058049;28;20060;-79
2022/01/27 13:09:20;;;;;;;15.38;9.75;;;;;;;;;;5041933;28;20017;-79
2022/01/27 13:11:48;;;;;;;17.42;10.18;;;;;;;;;;5038799;28;20033;-80
2022/01/27 13:14:14;;;;;;;16.10;9.60;;;;;;;;;;5056795;28;20534;-78
2022/01/27 13:16:42;;;;;;;14.32;8.30;;;;;;;;;;5052736;28;20021;-79
2022/01/27 13:19:21;;;;;;;13.25;7.93;;;;;;;;;;5052479;28;20075;-82
2022/01/27 13:21:53;;;;;;;16.02;10.10;;;;;;;;;;5056252;28;20393;-79
2022/01/27 13:24:19;;;;;;;15.73;9.23;;;;;;;;;;5041433;28;20088;-80
2022/01/27 13:26:46;;;;;;;14.20;9.10;;;;;;;;;;5059337;28;20025;-79
2022/01/27 13:29:17;;;;;;;14.77;8.30;;;;;;;;;;5060381;28;20016;-80
2022/01/27 13:31:45;;;;;;;15.55;8.13;;;;;;;;;;5057389;28;20026;-79
2022/01/27 13:34:11;;;;;;;15.93;8.73;;;;;;;;;;5039866;28;20022;-79
2022/01/27 13:36:37;;;;;;;11.50;7.28;;;;;;;;;;5036252;28;20039;-81
2022/01/27 13:41:54;;;;;;;13.13;7.72;;;;;;;;;;5045049;28;20031;-80
2022/01/27 13:44:21;;;;;;;15.07;8.73;;;;;;;;;;5053235;28;20021;-79
2022/01/27 13:46:59;;;;;;;13.43;8.52;;;;;;;;;;5057788;28;20021;-79
2022/01/27 13:49:32;;;;;;;19.85;8.65;;;;;;;;;;5031027;28;20027;-82
2022/01/27 13:51:59;;;;;;;13.93;8.85;;;;;;;;;;5041093;28;20115;-80
2022/01/27 13:54:32;;;;;;;12.88;7.65;;;;;;;;;;5045596;28;20036;-81
2022/01/27 13:57:11;;;;;;;13.23;8.35;;;;;;;;;;5037706;28;20029;-80
2022/01/27 13:59:41;;;;;;;13.25;8.13;;;;;;;;;;5059186;28;20056;-81
2022/01/27 14:02:26;;;;;;;14.82;8.57;;;;;;;;;;5049517;28;20057;-79
2022/01/27 14:04:52;;;;;;;13.43;8.50;;;;;;;;;;5056642;28;20112;-82
2022/01/27 14:07:28;;;;;;;13.38;7.97;;;;;;;;;;5053616;28;20475;-81
2022/01/27 14:09:54;;;;;;;20.30;9.38;;;;;;;;;;5048024;28;20040;-81
2022/01/27 14:12:26;;;;;;;12.85;9.25;;;;;;;;;;5062702;28;20033;-80
2022/01/27 14:14:53;;;;;;;13.15;7.55;;;;;;;;;;5062217;28;20021;-79
2022/01/27 14:17:20;;;;;;;12.40;8.13;;;;;;;;;;5061929;28;20127;-80
2022/01/27 14:19:46;;;;;;;17.60;8.32;;;;;;;;;;5043339;28;20032;-78
2022/01/27 14:22:20;;;;;;;12.52;8.02;;;;;;;;;;5043140;28;20556;-79
2022/01/27 14:24:58;;;;;;;15.32;8.10;;;;;;;;;;5061705;28;20032;-78
2022/01/27 14:27:44;;;;;;;14.40;7.50;;;;;;;;;;5061873;28;20032;-78
2022/01/27 14:30:13;;;;;;;13.82;8.48;;;;;;;;;;5058077;28;20017;-81
2022/01/27 14:32:40;;;;;;;17.10;8.75;;;;;;;;;;5025470;28;20045;-78
2022/01/27 14:35:07;;;;;;;14.32;7.72;;;;;;;;;;5022570;28;20052;-79
2022/01/27 14:37:35;;;;;;;15.02;8.05;;;;;;;;;;5050842;28;20037;-78
2022/01/27 14:40:02;;;;;;;15.80;8.55;;;;;;;;;;5041968;28;20036;-80
2022/01/27 14:42:28;;;;;;;14.35;8.07;;;;;;;;;;5043770;28;20030;-79
2022/01/27 14:44:54;;;;;;;13.45;7.68;;;;;;;;;;5059837;28;20025;-79
2022/01/27 14:47:21;;;;;;;13.88;7.97;;;;;;;;;;5067084;28;20017;-79
2022/01/27 14:49:51;;;;;;;14.65;8.13;;;;;;;;;;5063384;28;20029;-80
2022/01/27 14:52:24;;;;;;;13.48;8.63;;;;;;;;;;5027567;28;20022;-79
2022/01/27 14:54:50;;;;;;;12.75;7.30;;;;;;;;;;5040837;28;20021;-80
2022/01/27 14:57:16;;;;;;;13.60;7.63;;;;;;;;;;5064845;28;20051;-80
2022/01/27 14:59:42;;;;;;;11.00;6.65;;;;;;;;;;5047439;28;20063;-78
2022/01/27 15:02:09;;;;;;;14.82;8.18;;;;;;;;;;5029504;28;20046;-79
2022/01/27 15:04:35;;;;;;;12.90;7.75;;;;;;;;;;5005351;28;20025;-79
2022/01/27 15:07:02;;;;;;;13.35;7.70;;;;;;;;;;5020570;28;20049;-79
2022/01/27 15:09:28;;;;;;;14.25;8.00;;;;;;;;;;5005058;28;20022;-79
2022/01/27 15:11:54;;;;;;;13.05;8.07;;;;;;;;;;5004307;28;20030;-79
2022/01/27 15:19:52;;;;;;;15.52;9.32;;;;;;;;;;5023231;28;20101;-80
2022/01/27 15:22:20;;;;;;;13.88;8.20;;;;;;;;;;5022707;28;20109;-80
2022/01/27 15:24:46;;;;;;;14.23;7.75;;;;;;;;;;5035648;28;20040;-80